RJCH

Hakodate Airport

Hakodate, Japan
TAF RJCH 191713Z 1918/2100 03008KT 9999 FEW030 BECMG 2000/2002 28012KT BECMG 2012/2015 04006KT
Issued Valid From Valid To
Sep-19 @ 17:13 UTC
(6 hours ago)
Sep-19 @ 18:00 UTC
(5 hours ago)
Sep-21 @ 00:00 UTC
(-1 days ago)
Sep-19 @ 18:00 to Sep-20 @ 00:00
TAF RJCH 191713Z 1918/2100 03008KT 9999 FEW030
Wind Visibility Clouds
30° at 8 knots 10,000+ meters
  • Few at 3,000' AGL
Becoming Sep-20 @ 00:00 to Sep-20 @ 12:00
BECMG 2000/2002 28012KT
Wind Visibility Clouds
280° at 12 knots 10,000+ meters
  • Few at 3,000' AGL
Becoming Sep-20 @ 12:00 to Sep-21 @ 00:00
BECMG 2012/2015 04006KT
Wind Visibility Clouds
40° at 6 knots 10,000+ meters
  • Few at 3,000' AGL
TAF RJCH 191713Z 1918/2100 03008KT 9999 FEW030 BECMG 2000/2002 28012KT BECMG 2012/2015 04006KT
Issued Sep-19 @ 17:13 UTC
(6 hours ago)
Valid From Sep-19 @ 18:00 UTC
(5 hours ago)
Valid To Sep-21 @ 00:00 UTC
(-1 days ago)
Sep-19 @ 18:00 - Sep-20 @ 00:00
Wind Visibility
30° at 8 knots 10,000+ meters
Clouds
  • Few at 3,000' AGL
Becoming Sep-20 @ 00:00 - Sep-20 @ 12:00
Wind Visibility
280° at 12 knots 10,000+ meters
Clouds
  • Few at 3,000' AGL
Becoming Sep-20 @ 12:00 - Sep-21 @ 00:00
Wind Visibility
40° at 6 knots 10,000+ meters
Clouds
  • Few at 3,000' AGL